Portada
METAR-TAF:

METAR-TAF

Aeroports :

Briansk, Rússia

latitud: 53-15N, longitud: 034-19E, altitud: 217 m

Observació

L'informe es va fer fa 11 hores i 13 minuts, a les 15:00 UTC
Vent 2 kt amb direcció variable
Temperatura 16°C
Humitat 55%
Pressió 1023 hPa
Visibilitat 10 km o més
Cel ennuvolat a una alçada de 4700 ft

METAR: UUBP 271500Z VRB01MPS 9999 BKN047 16/07 Q1023 R16/CLRD70 NOSIG RMK QFE749/0999

Hora: 05:13 (02:13 UTC)

Pronòstic

L'informe es va fer fa 12 hores i 16 minuts, a les 13:57 UTC
Pronòstic vàlid del 27 a les 15 UTC al 27 a les 24 UTC
Vent 2 kt amb direcció variable
Visibilitat 10 km o més
Cel ennuvolat a una alçada de 3000 ft
Temporalment
l' 27 a les 15 UTC al 27 a les 21 UTC
Cel ennuvolat a una alçada de 1500 ft, Cumulonimbus.
xàfecs de pluja

TAF: UUBP 271357Z 2715/2724 VRB01MPS 9999 BKN030 TEMPO 2715/2721 -SHRA BKN015CB

Observacions i pronòstics meteorològics de més de 4000 aeroports (METAR i TAF).

Les estacions disponibles són els punts grocs i vermells al mapa.

Posi el ratolí al punt desitjat per veure el nom de l'estació.

Feu clic per veure les observacions i els pronòstics meteorològics.

Per canviar el mapa: feu clic els botons verds amb una creu de color negre per apropar; al botó verd amb un guió per allunyar la imatge; o en les fletxes verdes per a mapes adjacents.


METAR-TAF: